createdAt,value
2023-05-29T00:00:05.893Z,59.444
2023-05-29T00:01:05.685Z,59.154
2023-05-29T00:02:05.306Z,59.497
2023-05-29T00:03:06.682Z,59.415
2023-05-29T00:04:06.415Z,59.700
2023-05-29T00:05:05.226Z,59.251
2023-05-29T00:06:06.150Z,58.906
2023-05-29T00:07:05.692Z,59.372
2023-05-29T00:08:05.287Z,59.530
2023-05-29T00:09:05.807Z,60.419
2023-05-29T00:10:05.470Z,60.478
2023-05-29T00:13:06.020Z,60.758
2023-05-29T00:14:05.133Z,60.567
2023-05-29T00:15:05.746Z,60.449
2023-05-29T00:16:05.490Z,60.567
2023-05-29T00:17:05.091Z,60.636
2023-05-29T00:18:06.009Z,60.476
2023-05-29T00:20:05.817Z,60.690
2023-05-29T00:21:05.550Z,60.508
2023-05-29T00:22:05.099Z,60.304
2023-05-29T00:23:05.756Z,60.526
2023-05-29T00:24:05.395Z,60.421
2023-05-29T00:25:04.998Z,60.562
2023-05-29T00:26:05.930Z,60.476
2023-05-29T00:27:05.447Z,60.213
2023-05-29T00:28:05.180Z,60.154
2023-05-29T00:29:05.772Z,60.581
2023-05-29T00:30:05.655Z,60.356
2023-05-29T00:32:06.286Z,60.499
2023-05-29T00:33:05.511Z,60.342
2023-05-29T00:34:05.306Z,60.278
2023-05-29T00:35:06.059Z,60.709
2023-05-29T00:36:07.414Z,61.397
2023-05-29T00:37:05.297Z,60.886
2023-05-29T00:40:05.493Z,60.781
2023-05-29T00:41:05.093Z,61.439
2023-05-29T00:42:05.657Z,61.897
2023-05-29T00:43:05.227Z,62.021
2023-05-29T00:44:05.954Z,61.792
2023-05-29T00:45:05.568Z,62.246
2023-05-29T00:46:05.212Z,62.322
2023-05-29T00:48:05.835Z,63.673
2023-05-29T00:49:05.679Z,63.051
2023-05-29T00:51:05.104Z,64.096
2023-05-29T00:52:05.655Z,63.265
2023-05-29T00:53:05.226Z,64.817
2023-05-29T00:54:05.772Z,65.555
2023-05-29T00:55:05.366Z,65.519
2023-05-29T00:56:04.962Z,64.415
2023-05-29T00:57:05.540Z,66.791
2023-05-29T00:58:05.085Z,66.992
2023-05-29T00:59:05.683Z,67.301
2023-05-29T01:00:05.403Z,66.696
2023-05-29T01:01:05.079Z,66.412
2023-05-29T01:02:06.416Z,65.164
2023-05-29T01:03:05.591Z,66.381
2023-05-29T01:04:05.605Z,65.994
2023-05-29T01:05:05.147Z,65.645
2023-05-29T01:06:05.741Z,67.451
2023-05-29T01:07:05.294Z,65.736
2023-05-29T01:08:05.967Z,65.607
2023-05-29T01:09:05.536Z,66.044
2023-05-29T01:10:05.125Z,64.750
2023-05-29T01:11:05.887Z,67.590
2023-05-29T01:12:05.622Z,65.500
2023-05-29T01:14:05.975Z,67.606
2023-05-29T01:15:05.731Z,67.293
2023-05-29T01:16:05.632Z,66.896
2023-05-29T01:17:05.488Z,67.741
2023-05-29T01:20:05.896Z,68.117
2023-05-29T01:21:06.182Z,68.828
2023-05-29T01:22:05.763Z,68.508
2023-05-29T01:23:05.368Z,69.465
2023-05-29T01:24:05.921Z,69.355
2023-05-29T01:25:05.592Z,70.322
2023-05-29T01:26:05.200Z,69.959
2023-05-29T01:27:05.819Z,70.184
2023-05-29T01:28:05.581Z,69.689
2023-05-29T01:29:05.127Z,68.968
2023-05-29T01:30:05.792Z,69.797
2023-05-29T01:31:05.734Z,68.853
2023-05-29T01:33:05.348Z,69.315
2023-05-29T01:34:06.091Z,68.498
2023-05-29T01:35:05.768Z,70.240
2023-05-29T01:36:05.398Z,70.879
2023-05-29T01:37:05.055Z,70.776
2023-05-29T01:38:05.935Z,71.470
2023-05-29T01:40:05.284Z,71.623
2023-05-29T01:41:06.117Z,71.825
2023-05-29T01:42:05.884Z,70.823
2023-05-29T01:43:05.469Z,70.732
2023-05-29T01:44:05.037Z,71.541
2023-05-29T01:45:05.561Z,72.223
2023-05-29T01:47:05.821Z,71.506
2023-05-29T01:48:06.056Z,72.555
2023-05-29T01:49:05.724Z,70.959
2023-05-29T01:50:05.325Z,71.447
2023-05-29T01:51:05.347Z,70.627
2023-05-29T01:52:05.008Z,72.256
2023-05-29T01:53:05.665Z,71.613
2023-05-29T01:54:05.334Z,72.134
2023-05-29T01:55:05.919Z,72.935
2023-05-29T01:56:05.495Z,72.761
2023-05-29T01:57:05.116Z,72.769
2023-05-29T01:58:05.711Z,72.763
2023-05-29T01:59:05.251Z,72.346
2023-05-29T02:00:06.047Z,72.845
2023-05-29T02:01:06.408Z,71.914
2023-05-29T02:02:05.183Z,71.379
2023-05-29T02:03:06.358Z,72.521
2023-05-29T02:04:05.726Z,72.719
2023-05-29T02:06:05.236Z,72.872
2023-05-29T02:07:05.876Z,73.145
2023-05-29T02:08:05.542Z,73.675
2023-05-29T02:09:05.136Z,73.929
2023-05-29T02:10:05.776Z,73.734
2023-05-29T02:11:05.403Z,73.294
2023-05-29T02:12:05.005Z,74.470
2023-05-29T02:13:05.598Z,73.807
2023-05-29T02:14:05.339Z,74.219
2023-05-29T02:15:05.018Z,72.862
2023-05-29T02:16:05.817Z,73.891
2023-05-29T02:17:06.118Z,73.519
2023-05-29T02:18:05.886Z,74.598
2023-05-29T02:20:05.631Z,74.632
2023-05-29T02:21:06.024Z,74.304
2023-05-29T02:22:05.651Z,74.602
2023-05-29T02:23:05.324Z,74.858
2023-05-29T02:24:05.963Z,74.936
2023-05-29T02:25:05.729Z,74.823
2023-05-29T02:26:05.325Z,75.029
2023-05-29T02:27:05.942Z,75.132
2023-05-29T02:28:05.574Z,75.685
2023-05-29T02:30:06.257Z,75.561
2023-05-29T02:31:05.869Z,73.759
2023-05-29T02:32:05.639Z,75.365
2023-05-29T02:33:05.789Z,75.033
2023-05-29T02:34:05.709Z,75.582
2023-05-29T02:35:05.339Z,76.111
2023-05-29T02:36:04.967Z,76.164
2023-05-29T02:37:05.738Z,75.952
2023-05-29T02:38:05.570Z,76.185
2023-05-29T02:39:05.611Z,76.177
2023-05-29T02:41:06.174Z,75.531
2023-05-29T02:42:05.735Z,75.664
2023-05-29T02:43:05.339Z,76.750
2023-05-29T02:44:04.887Z,76.214
2023-05-29T02:45:05.653Z,76.715
2023-05-29T02:47:05.087Z,76.046
2023-05-29T02:48:06.005Z,76.197
2023-05-29T02:49:05.853Z,76.116
2023-05-29T02:51:05.162Z,76.256
2023-05-29T02:52:05.785Z,76.008
2023-05-29T02:53:05.422Z,75.962
2023-05-29T02:54:04.936Z,76.238
2023-05-29T02:55:05.553Z,77.152
2023-05-29T02:56:05.157Z,77.644
2023-05-29T02:57:05.827Z,77.080
2023-05-29T02:58:05.541Z,77.511
2023-05-29T02:59:05.133Z,77.658
2023-05-29T03:00:05.786Z,77.509
2023-05-29T03:01:05.652Z,77.951
2023-05-29T03:02:05.773Z,77.824
2023-05-29T03:03:05.994Z,77.938
2023-05-29T03:04:05.325Z,78.173
2023-05-29T03:05:04.974Z,78.220
2023-05-29T03:06:05.802Z,77.841
2023-05-29T03:08:05.092Z,78.195
2023-05-29T03:09:05.640Z,78.377
2023-05-29T03:10:05.939Z,77.347
2023-05-29T03:11:05.554Z,77.694
2023-05-29T03:14:05.422Z,78.274
2023-05-29T03:15:04.990Z,78.524
2023-05-29T03:16:05.803Z,78.819
2023-05-29T03:17:05.597Z,79.252
2023-05-29T03:19:05.226Z,79.815
2023-05-29T03:20:05.989Z,78.251
2023-05-29T03:21:06.453Z,78.903
2023-05-29T03:22:05.000Z,79.693
2023-05-29T03:23:05.596Z,78.182
2023-05-29T03:24:05.173Z,79.801
2023-05-29T03:25:05.975Z,78.163
2023-05-29T03:26:05.595Z,78.894
2023-05-29T03:27:05.139Z,79.069
2023-05-29T03:28:05.826Z,79.176
2023-05-29T03:29:05.504Z,79.327
2023-05-29T03:31:06.220Z,78.754
2023-05-29T03:32:05.908Z,77.722
2023-05-29T03:33:05.570Z,78.556
2023-05-29T03:36:05.708Z,77.877
2023-05-29T03:37:05.329Z,77.921
2023-05-29T03:38:05.920Z,77.921
2023-05-29T03:39:05.535Z,76.771
2023-05-29T03:41:05.753Z,76.940
2023-05-29T03:42:05.342Z,76.738
2023-05-29T03:43:05.987Z,77.143
2023-05-29T03:44:05.592Z,77.473
2023-05-29T03:45:05.200Z,77.240
2023-05-29T03:46:05.967Z,76.984
2023-05-29T03:47:05.732Z,75.939
2023-05-29T03:48:05.861Z,75.239
2023-05-29T03:49:05.481Z,75.285
2023-05-29T03:50:05.041Z,74.100
2023-05-29T03:51:05.719Z,73.936
2023-05-29T03:52:05.366Z,74.154
2023-05-29T03:53:05.979Z,73.086
2023-05-29T03:54:05.572Z,73.093
2023-05-29T03:55:05.140Z,73.154
2023-05-29T03:56:06.259Z,72.902
2023-05-29T03:57:04.895Z,71.918
2023-05-29T03:58:05.555Z,71.659
2023-05-29T03:59:05.124Z,70.703
2023-05-29T04:00:05.712Z,70.677
2023-05-29T04:01:05.391Z,70.925
2023-05-29T04:02:05.045Z,71.609
2023-05-29T04:03:06.228Z,71.293
2023-05-29T04:06:06.085Z,71.594
2023-05-29T04:07:05.736Z,71.108
2023-05-29T04:08:18.977Z,70.734
2023-05-29T04:09:05.493Z,70.349
2023-05-29T04:10:05.104Z,70.289
2023-05-29T04:11:05.731Z,70.064
2023-05-29T04:12:05.334Z,69.568
2023-05-29T04:13:05.953Z,69.261
2023-05-29T04:14:05.612Z,68.506
2023-05-29T04:15:05.133Z,68.557
2023-05-29T04:16:06.274Z,67.821
2023-05-29T04:17:06.186Z,67.737
2023-05-29T04:18:05.293Z,67.690
2023-05-29T04:20:05.950Z,64.735
2023-05-29T04:21:05.680Z,64.535
2023-05-29T04:22:05.366Z,64.495
2023-05-29T04:23:05.924Z,64.882
2023-05-29T04:24:05.491Z,63.928
2023-05-29T04:25:05.108Z,64.085
2023-05-29T04:26:05.935Z,63.253
2023-05-29T04:27:05.659Z,62.709
2023-05-29T04:28:05.229Z,62.214
2023-05-29T04:29:05.896Z,62.290
2023-05-29T04:30:04.972Z,61.895
2023-05-29T04:31:06.360Z,61.744
2023-05-29T04:32:05.101Z,61.916
2023-05-29T04:33:05.967Z,61.294
2023-05-29T04:34:05.712Z,61.267
2023-05-29T04:35:05.394Z,61.805
2023-05-29T04:38:05.484Z,59.898
2023-05-29T04:39:05.049Z,59.064
2023-05-29T04:40:05.572Z,58.654
2023-05-29T04:41:06.093Z,58.424
2023-05-29T04:43:05.597Z,57.863
2023-05-29T04:44:05.166Z,56.718
2023-05-29T04:45:05.734Z,57.384
2023-05-29T04:46:05.901Z,57.106
2023-05-29T04:47:05.904Z,57.680
2023-05-29T04:48:05.836Z,56.083
2023-05-29T04:50:05.375Z,57.083
2023-05-29T04:51:06.213Z,57.296
2023-05-29T04:52:05.980Z,58.292
2023-05-29T04:53:05.652Z,57.897
2023-05-29T04:54:05.196Z,56.343
2023-05-29T04:55:05.837Z,57.293
2023-05-29T04:56:05.448Z,57.289
2023-05-29T04:57:05.051Z,57.392
2023-05-29T04:58:05.664Z,57.550
2023-05-29T04:59:05.268Z,58.132
2023-05-29T05:00:05.906Z,57.596
2023-05-29T05:01:05.497Z,56.797
2023-05-29T05:02:05.215Z,56.449
2023-05-29T05:03:05.335Z,55.934
2023-05-29T05:04:05.433Z,56.510
2023-05-29T05:05:05.086Z,56.938
2023-05-29T05:06:05.714Z,54.317
2023-05-29T05:07:05.447Z,54.447
2023-05-29T05:08:05.091Z,53.871
2023-05-29T05:09:05.664Z,53.512
2023-05-29T05:10:05.377Z,53.319
2023-05-29T05:12:05.801Z,53.712
2023-05-29T05:13:05.420Z,53.293
2023-05-29T05:14:04.972Z,53.325
2023-05-29T05:15:05.812Z,54.338
2023-05-29T05:16:05.623Z,54.895
2023-05-29T05:17:05.726Z,55.564
2023-05-29T05:18:05.594Z,55.831
2023-05-29T05:19:05.263Z,56.171
2023-05-29T05:20:06.058Z,56.448
2023-05-29T05:21:06.263Z,56.249
2023-05-29T05:22:05.835Z,56.219
2023-05-29T05:24:05.032Z,55.805
2023-05-29T05:25:05.628Z,56.161
2023-05-29T05:26:05.285Z,55.858
2023-05-29T05:27:05.014Z,55.511
2023-05-29T05:28:05.647Z,55.563
2023-05-29T05:29:05.237Z,54.904
2023-05-29T05:30:05.913Z,54.796
2023-05-29T05:31:05.552Z,53.768
2023-05-29T05:32:05.439Z,52.972
2023-05-29T05:33:05.811Z,52.852
2023-05-29T05:34:05.916Z,52.953
2023-05-29T05:35:05.507Z,52.932
2023-05-29T05:36:05.103Z,52.949
2023-05-29T05:37:05.838Z,53.230
2023-05-29T05:38:05.443Z,52.667
2023-05-29T05:39:05.038Z,52.581
2023-05-29T05:40:05.621Z,52.938
2023-05-29T05:41:05.192Z,52.284
2023-05-29T05:42:05.789Z,52.402
2023-05-29T05:44:05.079Z,52.492
2023-05-29T05:45:05.705Z,51.790
2023-05-29T05:46:05.674Z,52.099
2023-05-29T05:48:05.399Z,52.360
2023-05-29T05:49:05.097Z,51.475
2023-05-29T05:50:05.697Z,50.994
2023-05-29T05:51:05.319Z,51.156
2023-05-29T05:52:05.954Z,50.815
2023-05-29T05:53:05.552Z,50.830
2023-05-29T05:54:05.228Z,51.458
2023-05-29T05:55:05.893Z,50.119
2023-05-29T05:56:05.504Z,50.144
2023-05-29T05:57:05.060Z,49.816
2023-05-29T05:58:05.689Z,51.015
2023-05-29T05:59:05.285Z,51.176
2023-05-29T06:00:05.939Z,50.754
2023-05-29T06:01:05.545Z,51.177
2023-05-29T06:02:06.448Z,51.063
2023-05-29T06:03:05.647Z,50.626
2023-05-29T06:04:06.288Z,50.422
2023-05-29T06:05:05.428Z,49.882
2023-05-29T06:06:05.065Z,49.953
2023-05-29T06:07:05.713Z,51.347
2023-05-29T06:08:05.351Z,50.010
2023-05-29T06:09:05.962Z,50.010
2023-05-29T06:10:05.537Z,49.638
2023-05-29T06:11:05.496Z,48.505
2023-05-29T06:12:05.096Z,48.557
2023-05-29T06:13:05.731Z,49.385
2023-05-29T06:16:05.878Z,49.489
2023-05-29T06:18:05.519Z,50.434
2023-05-29T06:19:05.324Z,51.181
2023-05-29T06:20:06.158Z,50.855
2023-05-29T06:21:06.711Z,50.762
2023-05-29T06:22:05.314Z,50.474
2023-05-29T06:23:05.832Z,50.359
2023-05-29T06:24:05.411Z,51.429
2023-05-29T06:25:10.426Z,50.819
2023-05-29T06:27:06.372Z,50.071
2023-05-29T06:28:05.131Z,49.419
2023-05-29T06:29:05.824Z,49.568
2023-05-29T06:30:05.501Z,49.331
2023-05-29T06:31:05.493Z,49.800
2023-05-29T06:32:05.300Z,48.181
2023-05-29T06:33:06.204Z,47.052
2023-05-29T06:36:08.716Z,46.810
2023-05-29T06:38:05.096Z,46.531
2023-05-29T06:39:05.666Z,47.498
2023-05-29T06:40:05.288Z,46.516
2023-05-29T06:41:06.312Z,46.018
2023-05-29T06:43:05.484Z,45.249
2023-05-29T06:44:05.064Z,46.462
2023-05-29T06:45:05.691Z,46.197
2023-05-29T06:48:05.481Z,45.125
2023-05-29T06:49:08.572Z,45.635
2023-05-29T06:50:05.176Z,45.770
2023-05-29T06:51:05.761Z,44.616
2023-05-29T06:52:05.350Z,44.578
2023-05-29T06:53:04.980Z,44.771
2023-05-29T06:54:05.624Z,44.978
2023-05-29T06:55:05.240Z,44.317
2023-05-29T06:56:06.131Z,45.978
2023-05-29T06:57:14.407Z,45.465
2023-05-29T06:59:05.597Z,45.986
2023-05-29T07:00:05.297Z,45.486
2023-05-29T07:01:10.039Z,45.127
2023-05-29T07:03:06.374Z,45.490
2023-05-29T07:04:05.794Z,45.085
2023-05-29T07:06:05.247Z,45.493
2023-05-29T07:07:05.949Z,45.278
2023-05-29T07:08:05.532Z,45.085
2023-05-29T07:09:05.189Z,44.725
2023-05-29T07:10:05.782Z,44.481
2023-05-29T07:11:05.367Z,44.074
2023-05-29T07:12:04.978Z,44.439
2023-05-29T07:13:05.764Z,44.801
2023-05-29T07:14:05.417Z,43.605
2023-05-29T07:15:05.079Z,43.693
2023-05-29T07:16:24.392Z,43.287
2023-05-29T07:18:05.825Z,44.124
2023-05-29T07:20:08.192Z,42.978
2023-05-29T07:21:06.622Z,42.964
2023-05-29T07:22:05.325Z,42.945
2023-05-29T07:23:06.028Z,42.976
2023-05-29T07:24:05.621Z,43.254
2023-05-29T07:25:05.182Z,43.592
2023-05-29T07:26:05.805Z,43.502
2023-05-29T07:27:05.400Z,41.770
2023-05-29T07:28:21.741Z,42.585
2023-05-29T07:30:05.626Z,43.117
2023-05-29T07:31:05.195Z,43.304
2023-05-29T07:32:06.078Z,43.115
2023-05-29T07:33:05.192Z,43.050
2023-05-29T07:34:04.936Z,42.543
2023-05-29T07:35:05.597Z,42.808
2023-05-29T07:36:05.126Z,42.674
2023-05-29T07:37:05.732Z,42.367
2023-05-29T07:38:05.429Z,42.713
2023-05-29T07:39:05.049Z,41.557
2023-05-29T07:40:05.935Z,40.788
2023-05-29T07:41:05.513Z,39.630
2023-05-29T07:42:05.083Z,38.903
2023-05-29T07:43:05.720Z,39.136
2023-05-29T07:44:05.299Z,39.672
2023-05-29T07:45:05.981Z,39.886
2023-05-29T07:46:05.948Z,39.430
2023-05-29T07:47:06.036Z,38.627
2023-05-29T07:48:05.971Z,39.811
2023-05-29T07:50:05.517Z,39.821
2023-05-29T07:51:05.574Z,39.834
2023-05-29T07:52:05.152Z,39.645
2023-05-29T07:53:05.800Z,39.460
2023-05-29T07:54:05.738Z,38.747
2023-05-29T07:55:05.356Z,39.245
2023-05-29T07:56:04.967Z,39.636
2023-05-29T07:57:05.661Z,37.851
2023-05-29T07:58:05.301Z,37.950
2023-05-29T07:59:05.144Z,38.310
2023-05-29T08:00:05.032Z,38.726
2023-05-29T08:01:06.512Z,38.156
2023-05-29T08:03:06.402Z,39.033
2023-05-29T08:04:06.737Z,37.843
2023-05-29T08:05:05.614Z,37.809
2023-05-29T08:06:05.339Z,36.935
2023-05-29T08:07:05.927Z,36.224
2023-05-29T08:08:05.539Z,36.691
2023-05-29T08:09:05.160Z,37.173
2023-05-29T08:10:05.893Z,37.040
2023-05-29T08:11:05.566Z,36.750
2023-05-29T08:12:05.135Z,36.733
2023-05-29T08:13:05.806Z,36.485
2023-05-29T08:14:05.681Z,36.329
2023-05-29T08:15:05.426Z,35.823
2023-05-29T08:16:05.304Z,35.556
2023-05-29T08:19:05.583Z,35.310
2023-05-29T08:20:05.230Z,34.997
2023-05-29T08:21:06.188Z,34.490
2023-05-29T08:23:05.481Z,35.346
2023-05-29T08:24:05.088Z,35.438
2023-05-29T08:25:05.722Z,34.518
2023-05-29T08:26:05.306Z,34.986
2023-05-29T08:27:05.888Z,35.726
2023-05-29T08:28:05.573Z,35.594
2023-05-29T08:29:05.305Z,34.347
2023-05-29T08:30:05.953Z,35.054
2023-05-29T08:31:05.677Z,35.457
2023-05-29T08:32:06.062Z,34.646
2023-05-29T08:33:06.927Z,35.144
2023-05-29T08:34:05.896Z,34.969
2023-05-29T08:36:05.274Z,34.318
2023-05-29T08:37:05.866Z,33.538
2023-05-29T08:38:05.501Z,33.527
2023-05-29T08:39:05.355Z,34.568
2023-05-29T08:40:05.081Z,34.600
2023-05-29T08:41:06.020Z,33.502
2023-05-29T08:42:06.258Z,34.379
2023-05-29T08:43:05.827Z,34.200
2023-05-29T08:45:05.143Z,34.621
2023-05-29T08:46:05.958Z,34.837
2023-05-29T08:47:05.715Z,34.642
2023-05-29T08:48:05.595Z,34.492
2023-05-29T08:49:05.445Z,34.517
2023-05-29T08:52:05.612Z,34.181
2023-05-29T08:53:07.558Z,34.579
2023-05-29T08:54:05.316Z,34.328
2023-05-29T08:55:05.017Z,34.183
2023-05-29T08:56:05.583Z,33.754
2023-05-29T08:57:05.218Z,33.815
2023-05-29T08:58:06.030Z,33.319
2023-05-29T08:59:10.080Z,33.273
2023-05-29T09:00:05.710Z,33.689
2023-05-29T09:01:05.682Z,33.729
2023-05-29T09:02:05.751Z,33.944
2023-05-29T09:03:05.586Z,33.530
2023-05-29T09:04:05.780Z,33.530
2023-05-29T09:05:05.708Z,33.130
2023-05-29T09:06:05.417Z,33.601
2023-05-29T09:07:05.156Z,33.258
2023-05-29T09:08:05.743Z,33.080
2023-05-29T09:09:05.403Z,32.703
2023-05-29T09:10:05.022Z,32.075
2023-05-29T09:11:05.945Z,32.207
2023-05-29T09:12:05.504Z,32.680
2023-05-29T09:13:05.214Z,32.418
2023-05-29T09:14:05.994Z,31.186
2023-05-29T09:15:06.040Z,31.184
2023-05-29T09:16:06.030Z,31.984
2023-05-29T09:17:05.811Z,31.245
2023-05-29T09:19:05.764Z,30.913
2023-05-29T09:20:06.087Z,32.079
2023-05-29T09:21:10.280Z,32.231
2023-05-29T09:22:05.891Z,32.191
2023-05-29T09:24:05.213Z,32.357
2023-05-29T09:25:05.821Z,31.818
2023-05-29T09:26:05.440Z,31.415
2023-05-29T09:27:05.093Z,31.722
2023-05-29T09:28:05.775Z,32.180
2023-05-29T09:29:05.419Z,31.957
2023-05-29T09:30:05.023Z,32.134
2023-05-29T09:31:06.080Z,31.743
2023-05-29T09:32:08.352Z,31.968
2023-05-29T09:33:06.064Z,31.245
2023-05-29T09:35:05.584Z,31.699
2023-05-29T09:36:05.818Z,31.755
2023-05-29T09:37:05.415Z,31.266
2023-05-29T09:39:20.289Z,30.408
2023-05-29T09:40:05.858Z,30.471
2023-05-29T09:41:05.437Z,29.641
2023-05-29T09:42:05.211Z,30.622
2023-05-29T09:43:05.808Z,30.320
2023-05-29T09:44:05.628Z,29.985
2023-05-29T09:45:05.284Z,29.624
2023-05-29T09:46:06.979Z,29.124
2023-05-29T09:47:05.423Z,30.128
2023-05-29T09:49:05.106Z,29.870
2023-05-29T09:50:05.728Z,29.559
2023-05-29T09:51:05.736Z,29.616
2023-05-29T09:52:06.451Z,29.843
2023-05-29T09:53:05.134Z,29.775
2023-05-29T09:54:05.732Z,28.670
2023-05-29T09:55:05.401Z,29.380
2023-05-29T09:56:05.426Z,29.183
2023-05-29T09:57:05.375Z,28.901
2023-05-29T09:58:05.373Z,28.463
2023-05-29T09:59:04.956Z,28.977
2023-05-29T10:00:05.634Z,28.039
2023-05-29T10:01:05.253Z,28.388
2023-05-29T10:02:06.125Z,29.941
2023-05-29T10:03:05.334Z,29.594
2023-05-29T10:04:05.753Z,29.710
2023-05-29T10:06:05.140Z,29.092
2023-05-29T10:07:05.713Z,28.283
2023-05-29T10:08:05.422Z,27.858
2023-05-29T10:09:05.007Z,28.651
2023-05-29T10:10:06.335Z,29.002
2023-05-29T10:11:05.079Z,28.567
2023-05-29T10:12:05.758Z,28.894
2023-05-29T10:13:05.384Z,28.440
2023-05-29T10:14:04.977Z,28.035
2023-05-29T10:15:05.638Z,28.855
2023-05-29T10:16:05.457Z,29.653
2023-05-29T10:17:05.605Z,29.157
2023-05-29T10:19:05.190Z,29.662
2023-05-29T10:20:05.974Z,29.313
2023-05-29T10:21:08.019Z,28.997
2023-05-29T10:22:05.659Z,29.363
2023-05-29T10:23:05.306Z,28.373
2023-05-29T10:24:06.094Z,28.493
2023-05-29T10:25:05.739Z,29.426
2023-05-29T10:26:05.778Z,28.796
2023-05-29T10:27:05.410Z,28.312
2023-05-29T10:28:05.038Z,29.164
2023-05-29T10:29:05.659Z,29.002
2023-05-29T10:30:05.488Z,29.220
2023-05-29T10:31:05.136Z,28.342
2023-05-29T10:32:06.122Z,28.293
2023-05-29T10:33:06.249Z,28.638
2023-05-29T10:34:05.148Z,28.133
2023-05-29T10:35:05.820Z,27.793
2023-05-29T10:36:05.485Z,27.164
2023-05-29T10:37:05.101Z,27.160
2023-05-29T10:38:05.698Z,27.671
2023-05-29T10:39:05.295Z,26.925
2023-05-29T10:40:06.249Z,27.948
2023-05-29T10:41:05.895Z,27.742
2023-05-29T10:42:05.597Z,28.567
2023-05-29T10:43:05.267Z,28.731
2023-05-29T10:44:05.972Z,27.835
2023-05-29T10:45:05.580Z,28.073
2023-05-29T10:46:05.841Z,28.257
2023-05-29T10:48:05.626Z,26.610
2023-05-29T10:49:07.384Z,26.362
2023-05-29T10:50:05.041Z,27.183
2023-05-29T10:51:05.689Z,26.908
2023-05-29T10:52:05.381Z,27.946
2023-05-29T10:53:05.059Z,27.869
2023-05-29T10:54:05.872Z,27.484
2023-05-29T10:56:05.536Z,27.633
2023-05-29T10:57:05.361Z,26.963
2023-05-29T10:58:04.972Z,27.644
2023-05-29T10:59:05.523Z,27.158
2023-05-29T11:00:05.120Z,25.733
2023-05-29T11:01:05.892Z,26.250
2023-05-29T11:02:05.902Z,27.274
2023-05-29T11:04:05.853Z,27.610
2023-05-29T11:06:09.727Z,27.829
2023-05-29T11:07:05.563Z,27.463
2023-05-29T11:08:05.121Z,27.417
2023-05-29T11:09:05.791Z,27.743
2023-05-29T11:10:05.433Z,26.990
2023-05-29T11:11:05.159Z,26.567
2023-05-29T11:12:05.786Z,26.450
2023-05-29T11:13:05.451Z,26.897
2023-05-29T11:14:05.088Z,27.648
2023-05-29T11:15:05.714Z,26.946
2023-05-29T11:16:05.423Z,27.661
2023-05-29T11:17:05.004Z,27.440
2023-05-29T11:18:06.109Z,26.200
2023-05-29T11:19:06.544Z,26.046
2023-05-29T11:20:05.785Z,26.061
2023-05-29T11:22:05.462Z,26.403
2023-05-29T11:23:05.301Z,26.679
2023-05-29T11:24:09.468Z,26.702
2023-05-29T11:25:05.295Z,26.977
2023-05-29T11:26:06.211Z,27.442
2023-05-29T11:27:05.813Z,27.108
2023-05-29T11:28:05.458Z,26.797
2023-05-29T11:29:05.149Z,26.834
2023-05-29T11:31:05.776Z,26.727
2023-05-29T11:32:08.143Z,26.862
2023-05-29T11:33:05.973Z,26.609
2023-05-29T11:35:05.495Z,25.477
2023-05-29T11:36:05.502Z,26.361
2023-05-29T11:37:05.166Z,25.950
2023-05-29T11:38:08.940Z,25.144
2023-05-29T11:40:05.116Z,26.424
2023-05-29T11:41:06.100Z,26.630
2023-05-29T11:42:05.748Z,26.002
2023-05-29T11:43:05.346Z,25.224
2023-05-29T11:44:05.049Z,25.090
2023-05-29T11:45:05.655Z,24.930
2023-05-29T11:46:05.405Z,24.760
2023-05-29T11:47:05.194Z,25.571
2023-05-29T11:48:05.611Z,25.512
2023-05-29T11:49:05.408Z,24.667
2023-05-29T11:51:10.643Z,25.525
2023-05-29T11:52:16.685Z,25.445
2023-05-29T11:54:05.518Z,25.180
2023-05-29T11:55:05.051Z,25.353
2023-05-29T11:56:06.041Z,25.184
2023-05-29T11:58:05.254Z,25.525
2023-05-29T11:59:06.149Z,26.052
2023-05-29T12:00:05.914Z,26.240
2023-05-29T12:01:05.525Z,26.811
2023-05-29T12:02:05.289Z,25.994
2023-05-29T12:03:05.556Z,26.021
2023-05-29T12:04:05.571Z,25.765
2023-05-29T12:05:05.426Z,25.968
2023-05-29T12:06:06.874Z,26.006
2023-05-29T12:07:05.571Z,24.863
2023-05-29T12:08:05.170Z,24.594
2023-05-29T12:09:05.791Z,23.631
2023-05-29T12:10:05.428Z,23.770
2023-05-29T12:11:04.980Z,24.203
2023-05-29T12:13:05.427Z,25.874
2023-05-29T12:14:05.185Z,25.561
2023-05-29T12:15:05.806Z,25.939
2023-05-29T12:16:05.710Z,25.868
2023-05-29T12:18:05.784Z,25.920
2023-05-29T12:19:05.623Z,25.580
2023-05-29T12:20:05.216Z,26.122
2023-05-29T12:21:06.047Z,25.556
2023-05-29T12:22:05.633Z,25.493
2023-05-29T12:23:05.251Z,25.535
2023-05-29T12:24:17.948Z,24.560
2023-05-29T12:25:05.635Z,25.174
2023-05-29T12:26:05.504Z,24.854
2023-05-29T12:27:05.094Z,25.535
2023-05-29T12:28:05.627Z,25.586
2023-05-29T12:29:05.217Z,25.004
2023-05-29T12:30:05.959Z,24.943
2023-05-29T12:31:05.132Z,24.818
2023-05-29T12:32:06.163Z,24.541
2023-05-29T12:33:06.115Z,25.149
2023-05-29T12:34:05.112Z,26.216
2023-05-29T12:35:05.713Z,25.710
2023-05-29T12:36:05.856Z,25.262
2023-05-29T12:37:05.567Z,25.388
2023-05-29T12:38:05.138Z,25.386
2023-05-29T12:39:05.877Z,25.081
2023-05-29T12:40:05.480Z,25.664
2023-05-29T12:41:05.565Z,24.760
2023-05-29T12:42:05.173Z,24.915
2023-05-29T12:43:05.936Z,24.316
2023-05-29T12:44:05.610Z,23.990
2023-05-29T12:45:05.205Z,24.106
2023-05-29T12:46:06.201Z,24.018
2023-05-29T12:47:06.614Z,23.801
2023-05-29T12:48:05.545Z,23.658
2023-05-29T12:49:05.526Z,24.417
2023-05-29T12:50:05.160Z,25.281
2023-05-29T12:51:05.776Z,25.815
2023-05-29T12:52:05.405Z,26.137
2023-05-29T12:53:05.086Z,26.033
2023-05-29T12:54:05.716Z,25.342
2023-05-29T12:55:05.452Z,24.526
2023-05-29T12:56:07.842Z,25.195
2023-05-29T12:57:05.530Z,25.811
2023-05-29T12:59:05.721Z,24.991
2023-05-29T13:00:05.576Z,24.928
2023-05-29T13:01:05.456Z,25.062
2023-05-29T13:02:05.174Z,25.308
2023-05-29T13:03:05.743Z,24.920
2023-05-29T13:04:06.577Z,25.283
2023-05-29T13:05:05.572Z,25.487
2023-05-29T13:06:05.667Z,25.184
2023-05-29T13:07:05.286Z,24.438
2023-05-29T13:08:05.858Z,24.941
2023-05-29T13:09:05.550Z,25.172
2023-05-29T13:11:05.728Z,25.281
2023-05-29T13:12:05.448Z,25.359
2023-05-29T13:13:05.158Z,24.585
2023-05-29T13:14:05.870Z,25.216
2023-05-29T13:15:05.744Z,24.970
2023-05-29T13:16:06.086Z,24.936
2023-05-29T13:17:05.878Z,25.201
2023-05-29T13:18:05.663Z,25.844
2023-05-29T13:20:05.248Z,25.254
2023-05-29T13:21:05.099Z,26.057
2023-05-29T13:22:05.716Z,25.132
2023-05-29T13:23:05.377Z,24.636
2023-05-29T13:24:04.972Z,24.787
2023-05-29T13:25:05.554Z,24.556
2023-05-29T13:26:05.455Z,23.547
2023-05-29T13:29:05.451Z,24.030
2023-05-29T13:30:05.697Z,24.186
2023-05-29T13:31:05.289Z,24.026
2023-05-29T13:32:06.165Z,23.603
2023-05-29T13:33:05.319Z,23.715
2023-05-29T13:34:05.064Z,23.297
2023-05-29T13:35:05.666Z,22.777
2023-05-29T13:36:05.924Z,23.549
2023-05-29T13:37:05.526Z,23.841
2023-05-29T13:39:05.780Z,24.808
2023-05-29T13:40:05.402Z,24.905
2023-05-29T13:41:05.019Z,23.847
2023-05-29T13:42:05.688Z,24.901
2023-05-29T13:43:05.393Z,25.332
2023-05-29T13:44:05.034Z,25.483
2023-05-29T13:45:05.729Z,25.359
2023-05-29T13:46:06.377Z,25.464
2023-05-29T13:47:05.250Z,25.699
2023-05-29T13:48:05.961Z,26.069
2023-05-29T13:49:05.741Z,25.058
2023-05-29T13:50:05.348Z,25.828
2023-05-29T13:52:05.856Z,25.237
2023-05-29T13:53:05.588Z,24.497
2023-05-29T13:54:05.168Z,25.741
2023-05-29T13:55:05.885Z,26.029
2023-05-29T13:56:06.228Z,25.441
2023-05-29T13:57:05.838Z,25.495
2023-05-29T13:58:05.490Z,24.304
2023-05-29T14:01:05.704Z,24.112